首页
METAR-TAF:

METAR-TAF

机场 :

斯科茨代爾, 亞利桑那州, 美国

纬度: 33-37-22N, 经度: 111-54-38W, 海拔: 460米

当前天气观测

该预报发布于13分钟前的01:53 UTC
风速9节,风向西南
温度 41°C
湿度 17%
气压 1009 hPa
能見度: 16.1公里
天空无云

METAR: KSDL 220153Z 22009KT 10SM CLR 41/11 A2981 RMK AO2 SLP064 T04060106

时间: 19:06 (02:06 UTC)

预报

该预报发布于2小时和46分钟前的23:20 UTC
预报有效从22日的 00点(UTC)到 22日的 24点(UTC)
风速9节,风向西
能見度: 10公里
少量云层高于12000英尺
散云层高于25000英尺
短暂存在
从 22日的 00点(UTC)到 22日的 03点(UTC)
风速11节,风向西,有时为16节阵风
从 22日的 0700点(UTC)
风速5节,风向多变
能見度: 10公里
散云层高于15000英尺
多云层高于25000英尺
从 22日的 1700点(UTC)
风速7节,风向西转西南
能見度: 10公里
少量云层高于11000英尺
多云层高于15000英尺
多云层高于20000英尺

TAF: KSDL 212320Z 2200/2224 26009KT P6SM FEW120 SCT250 TEMPO 2200/2203 26011G16KT FM220700 VRB05KT P6SM SCT150 BKN250 FM221700 24007KT P6SM FEW110 BKN150 BKN200

超过4000个机场的气象观测和天气预报(METAR&TAF报告)。

可查询的气象台以黄色和红色小点在地图上表示。

将鼠标移到小点上方,可查看气象台名称。

然后点击查看天气观测和预报。

如需切换地图:点击带黑十字的绿色按钮放大地图;点击带横线的绿色按钮缩小地图;或者点击绿色箭头查看邻近地区的地图。


METAR-TAF: